createdAt,value
2019-04-27T00:02:18.092Z,12.30
2019-04-27T00:05:04.397Z,12.70
2019-04-27T00:08:02.845Z,12.37
2019-04-27T00:10:50.967Z,12.45
2019-04-27T00:13:20.385Z,13.15
2019-04-27T00:16:14.925Z,12.63
2019-04-27T00:18:54.863Z,12.90
2019-04-27T00:21:34.803Z,14.20
2019-04-27T00:24:03.662Z,13.60
2019-04-27T00:26:33.483Z,13.20
2019-04-27T00:29:03.839Z,15.40
2019-04-27T00:31:33.690Z,13.98
2019-04-27T00:34:08.864Z,14.73
2019-04-27T00:36:45.131Z,16.73
2019-04-27T00:39:36.393Z,14.25
2019-04-27T00:42:05.591Z,14.65
2019-04-27T00:44:35.119Z,15.30
2019-04-27T00:47:08.797Z,15.65
2019-04-27T00:49:44.418Z,15.72
2019-04-27T00:52:17.869Z,15.32
2019-04-27T00:54:50.718Z,16.00
2019-04-27T00:57:40.387Z,17.23
2019-04-27T01:00:27.596Z,16.12
2019-04-27T01:03:01.161Z,16.10
2019-04-27T01:05:30.567Z,16.95
2019-04-27T01:08:00.033Z,17.10
2019-04-27T01:10:29.188Z,18.23
2019-04-27T01:12:58.266Z,19.80
2019-04-27T01:15:27.616Z,18.92
2019-04-27T01:18:09.549Z,18.42
2019-04-27T01:20:28.427Z,17.67
2019-04-27T01:22:59.441Z,19.48
2019-04-27T01:25:41.439Z,18.50
2019-04-27T01:28:18.339Z,19.02
2019-04-27T01:30:58.833Z,20.00
2019-04-27T01:33:28.325Z,20.30
2019-04-27T01:35:58.982Z,19.42
2019-04-27T01:38:29.076Z,20.12
2019-04-27T01:41:00.418Z,19.92
2019-04-27T01:43:30.190Z,18.97
2019-04-27T01:46:01.035Z,17.95
2019-04-27T01:48:30.595Z,20.08
2019-04-27T01:50:59.790Z,19.02
2019-04-27T01:53:30.303Z,19.20
2019-04-27T01:55:59.449Z,19.15
2019-04-27T01:58:29.283Z,19.57
2019-04-27T02:01:29.782Z,21.60
2019-04-27T02:04:32.923Z,19.42
2019-04-27T02:07:04.473Z,20.08
2019-04-27T02:09:33.338Z,19.60
2019-04-27T02:12:02.478Z,20.43
2019-04-27T02:14:31.299Z,21.40
2019-04-27T02:17:00.215Z,19.60
2019-04-27T02:19:29.408Z,18.67
2019-04-27T02:21:59.788Z,19.75
2019-04-27T02:24:29.001Z,19.25
2019-04-27T02:26:58.704Z,19.73
2019-04-27T02:29:38.954Z,19.73
2019-04-27T02:32:29.232Z,20.50
2019-04-27T02:35:00.492Z,19.67
2019-04-27T02:37:30.470Z,20.17
2019-04-27T02:40:00.193Z,19.27
2019-04-27T02:42:34.768Z,20.10
2019-04-27T02:45:03.789Z,20.10
2019-04-27T02:47:32.563Z,19.15
2019-04-27T02:50:01.410Z,19.85
2019-04-27T02:52:41.466Z,21.15
2019-04-27T02:55:10.430Z,19.20
2019-04-27T02:57:39.949Z,20.05
2019-04-27T03:00:10.476Z,19.25
2019-04-27T03:02:47.014Z,19.35
2019-04-27T03:05:26.523Z,19.17
2019-04-27T03:07:55.555Z,19.17
2019-04-27T03:10:26.661Z,18.70
2019-04-27T03:13:03.440Z,18.67
2019-04-27T03:15:49.739Z,18.30
2019-04-27T03:18:44.272Z,19.75
2019-04-27T03:21:20.257Z,18.73
2019-04-27T03:23:50.114Z,18.62
2019-04-27T03:26:44.602Z,17.87
2019-04-27T03:29:14.111Z,18.95
2019-04-27T03:31:47.260Z,19.05
2019-04-27T03:34:16.447Z,18.85
2019-04-27T03:36:44.537Z,18.20
2019-04-27T03:39:13.386Z,16.60
2019-04-27T03:41:42.374Z,17.82
2019-04-27T03:44:11.329Z,16.80
2019-04-27T03:46:40.173Z,17.77
2019-04-27T03:49:09.849Z,18.10
2019-04-27T03:51:54.513Z,17.17
2019-04-27T03:54:34.463Z,17.48
2019-04-27T03:57:16.172Z,16.95
2019-04-27T04:00:02.866Z,17.80
2019-04-27T04:02:31.812Z,16.82
2019-04-27T04:05:01.031Z,17.17
2019-04-27T04:07:30.248Z,18.00
2019-04-27T04:10:00.221Z,16.87
2019-04-27T04:12:47.093Z,17.02
2019-04-27T04:15:24.903Z,16.65
2019-04-27T04:17:53.856Z,16.93
2019-04-27T04:20:22.646Z,16.95
2019-04-27T04:22:51.633Z,15.95
2019-04-27T04:25:20.494Z,16.90
2019-04-27T04:27:50.667Z,17.30
2019-04-27T04:30:20.114Z,16.65
2019-04-27T04:32:51.985Z,17.85
2019-04-27T04:35:22.455Z,16.32
2019-04-27T04:37:52.688Z,16.57
2019-04-27T04:40:26.381Z,17.55
2019-04-27T04:43:10.878Z,15.80
2019-04-27T04:46:14.341Z,16.65
2019-04-27T04:48:43.216Z,16.67
2019-04-27T04:51:12.434Z,18.23
2019-04-27T04:53:41.553Z,17.05
2019-04-27T04:56:10.658Z,16.85
2019-04-27T04:58:41.405Z,16.97
2019-04-27T05:01:10.222Z,16.70
2019-04-27T05:03:39.012Z,16.48
2019-04-27T05:06:08.806Z,16.05
2019-04-27T05:08:39.359Z,16.80
2019-04-27T05:11:09.724Z,16.97
2019-04-27T05:13:39.370Z,16.00
2019-04-27T05:16:08.937Z,15.53
2019-04-27T05:18:39.396Z,16.42
2019-04-27T05:21:14.702Z,16.67
2019-04-27T05:23:43.522Z,15.43
2019-04-27T05:26:12.407Z,16.35
2019-04-27T05:28:41.431Z,16.32
2019-04-27T05:31:11.300Z,16.80
2019-04-27T05:33:40.082Z,17.07
2019-04-27T05:36:09.351Z,16.57
2019-04-27T05:38:39.855Z,16.82
2019-04-27T05:41:08.771Z,16.95
2019-04-27T05:43:46.915Z,16.10
2019-04-27T05:46:39.893Z,17.00
2019-04-27T05:49:12.478Z,18.10
2019-04-27T05:51:42.057Z,17.15
2019-04-27T05:54:11.055Z,16.42
2019-04-27T05:56:39.866Z,18.05
2019-04-27T05:59:09.145Z,17.50
2019-04-27T06:01:38.928Z,17.30
2019-04-27T06:04:09.052Z,17.82
2019-04-27T06:06:39.681Z,17.90
2019-04-27T06:09:09.523Z,17.25
2019-04-27T06:11:39.978Z,17.67
2019-04-27T06:14:09.693Z,17.73
2019-04-27T06:16:39.397Z,17.87
2019-04-27T06:19:09.587Z,19.12
2019-04-27T06:21:40.169Z,19.55
2019-04-27T06:24:09.189Z,18.52
2019-04-27T06:26:39.985Z,19.00
2019-04-27T06:29:09.520Z,17.35
2019-04-27T06:31:39.682Z,18.57
2019-04-27T06:34:09.839Z,17.52
2019-04-27T06:36:38.951Z,18.25
2019-04-27T06:39:09.777Z,19.02
2019-04-27T06:41:39.964Z,18.35
2019-04-27T06:44:11.288Z,17.90
2019-04-27T06:46:40.533Z,17.60
2019-04-27T06:49:11.108Z,17.62
2019-04-27T06:51:40.471Z,16.27
2019-04-27T06:54:09.436Z,17.48
2019-04-27T06:56:38.931Z,17.17
2019-04-27T06:59:08.742Z,18.80
2019-04-27T07:01:39.040Z,17.23
2019-04-27T07:04:08.813Z,19.37
2019-04-27T07:06:52.925Z,18.30
2019-04-27T07:09:09.662Z,18.10
2019-04-27T07:11:39.943Z,18.80
2019-04-27T07:14:11.183Z,18.10
2019-04-27T07:16:39.655Z,18.25
2019-04-27T07:19:09.469Z,18.42
2019-04-27T07:21:39.924Z,19.02
2019-04-27T07:24:09.124Z,18.52
2019-04-27T07:26:39.048Z,18.50
2019-04-27T07:29:09.617Z,17.52
2019-04-27T07:31:40.087Z,17.45
2019-04-27T07:34:09.544Z,17.07
2019-04-27T07:36:39.290Z,18.00
2019-04-27T07:39:11.138Z,17.87
2019-04-27T07:41:39.918Z,16.55
2019-04-27T07:44:21.298Z,16.77
2019-04-27T07:47:09.714Z,17.10
2019-04-27T07:49:39.075Z,16.55
2019-04-27T07:52:08.735Z,16.85
2019-04-27T07:54:38.501Z,16.60
2019-04-27T07:57:09.834Z,16.20
2019-04-27T07:59:41.607Z,17.83
2019-04-27T08:02:12.482Z,16.73
2019-04-27T08:04:41.264Z,17.07
2019-04-27T08:07:10.154Z,18.45
2019-04-27T08:09:39.733Z,16.93
2019-04-27T08:12:10.731Z,16.63
2019-04-27T08:14:39.366Z,16.62
2019-04-27T08:17:09.726Z,16.62
2019-04-27T08:19:39.656Z,16.27
2019-04-27T08:22:09.595Z,16.60
2019-04-27T08:24:39.561Z,16.17
2019-04-27T08:27:33.802Z,17.62
2019-04-27T08:30:29.309Z,15.08
2019-04-27T08:32:59.341Z,16.73
2019-04-27T08:35:31.096Z,14.63
2019-04-27T08:37:59.512Z,14.53
2019-04-27T08:40:29.294Z,15.98
2019-04-27T08:42:59.249Z,13.83
2019-04-27T08:45:29.306Z,13.55
2019-04-27T08:47:59.504Z,15.23
2019-04-27T08:50:28.911Z,13.30
2019-04-27T08:52:57.711Z,12.20
2019-04-27T08:55:26.530Z,12.60
2019-04-27T08:57:55.390Z,12.23
2019-04-27T09:00:24.348Z,12.18
2019-04-27T09:02:53.243Z,12.45
2019-04-27T09:05:25.541Z,12.47
2019-04-27T09:08:24.162Z,12.45
2019-04-27T09:11:12.551Z,9.73
2019-04-27T09:14:15.880Z,12.43
2019-04-27T09:17:03.054Z,9.63
2019-04-27T09:19:39.343Z,9.60
2019-04-27T09:22:15.951Z,9.83
2019-04-27T09:24:39.712Z,9.25
2019-04-27T09:27:09.738Z,9.13
2019-04-27T09:29:39.536Z,9.35
2019-04-27T09:32:08.981Z,10.23
2019-04-27T09:34:37.899Z,10.20
2019-04-27T09:37:06.913Z,9.03
2019-04-27T09:39:35.920Z,7.17
2019-04-27T09:42:06.495Z,9.60
2019-04-27T09:44:37.156Z,7.03
2019-04-27T09:47:06.400Z,8.88
2019-04-27T09:49:36.702Z,7.20
2019-04-27T09:52:06.357Z,8.53
2019-04-27T09:54:36.532Z,7.67
2019-04-27T09:57:06.931Z,7.78
2019-04-27T09:59:39.333Z,7.10
2019-04-27T10:02:08.612Z,8.13
2019-04-27T10:04:37.638Z,7.42
2019-04-27T10:07:06.524Z,6.33
2019-04-27T10:09:36.865Z,5.10
2019-04-27T10:12:07.503Z,5.62
2019-04-27T10:14:36.529Z,4.83
2019-04-27T10:17:05.458Z,5.37
2019-04-27T10:19:34.399Z,4.42
2019-04-27T10:22:05.663Z,4.78
2019-04-27T10:24:35.840Z,5.00
2019-04-27T10:27:05.842Z,3.75
2019-04-27T10:29:36.097Z,4.97
2019-04-27T10:32:06.220Z,3.98
2019-04-27T10:34:35.254Z,4.03
2019-04-27T10:37:05.919Z,5.67
2019-04-27T10:39:36.107Z,3.50
2019-04-27T10:42:06.702Z,4.58
2019-04-27T10:44:35.845Z,3.42
2019-04-27T10:47:05.893Z,4.33
2019-04-27T10:49:35.028Z,6.10
2019-04-27T10:52:05.744Z,3.42
2019-04-27T10:54:34.541Z,4.00
2019-04-27T10:57:03.561Z,3.87
2019-04-27T10:59:32.439Z,3.15
2019-04-27T11:02:01.343Z,2.92
2019-04-27T11:04:43.496Z,3.25
2019-04-27T11:07:15.847Z,2.27
2019-04-27T11:09:44.996Z,2.87
2019-04-27T11:12:15.707Z,2.65
2019-04-27T11:14:44.522Z,2.02
2019-04-27T11:17:13.395Z,2.50
2019-04-27T11:19:42.199Z,3.40
2019-04-27T11:22:11.051Z,2.55
2019-04-27T11:24:39.903Z,1.62
2019-04-27T11:27:08.911Z,5.35
2019-04-27T11:29:37.854Z,3.05
2019-04-27T11:32:06.835Z,4.72
2019-04-27T11:34:53.557Z,2.30
2019-04-27T11:37:28.592Z,3.30
2019-04-27T11:39:57.453Z,2.37
2019-04-27T11:42:27.367Z,2.65
2019-04-27T11:44:58.202Z,3.53
2019-04-27T11:47:27.458Z,2.40
2019-04-27T11:49:57.925Z,3.60
2019-04-27T11:52:26.948Z,2.93
2019-04-27T11:54:56.663Z,6.00
2019-04-27T11:57:25.495Z,4.40
2019-04-27T11:59:54.360Z,3.97
2019-04-27T12:02:23.383Z,2.58
2019-04-27T12:04:52.294Z,3.98
2019-04-27T12:07:21.174Z,3.12
2019-04-27T12:09:50.063Z,2.33
2019-04-27T12:12:21.794Z,3.33
2019-04-27T12:14:49.436Z,3.55
2019-04-27T12:17:18.348Z,3.55
2019-04-27T12:19:47.162Z,2.50
2019-04-27T12:22:16.451Z,2.77
2019-04-27T12:24:45.821Z,2.83
2019-04-27T12:27:32.515Z,3.05
2019-04-27T12:30:11.626Z,2.02
2019-04-27T12:32:40.593Z,2.20
2019-04-27T12:35:09.492Z,4.42
2019-04-27T12:37:38.320Z,2.10
2019-04-27T12:40:07.488Z,2.60
2019-04-27T12:42:36.505Z,1.37
2019-04-27T12:45:06.086Z,3.25
2019-04-27T12:47:36.509Z,3.95
2019-04-27T12:50:06.234Z,3.75
2019-04-27T12:52:36.077Z,2.80
2019-04-27T12:55:43.088Z,3.00
2019-04-27T12:58:29.550Z,2.85
2019-04-27T13:00:59.194Z,3.00
2019-04-27T13:03:27.978Z,3.52
2019-04-27T13:05:56.853Z,4.22
2019-04-27T13:08:26.115Z,3.53
2019-04-27T13:10:55.408Z,3.30
2019-04-27T13:13:26.698Z,3.50
2019-04-27T13:15:56.325Z,1.47
2019-04-27T13:18:25.934Z,3.20
2019-04-27T13:20:54.895Z,2.65
2019-04-27T13:23:23.829Z,2.80
2019-04-27T13:25:52.662Z,0.95
2019-04-27T13:28:21.475Z,1.07
2019-04-27T13:30:50.244Z,2.30
2019-04-27T13:33:19.051Z,1.30
2019-04-27T13:35:47.880Z,1.25
2019-04-27T13:38:18.128Z,0.80
2019-04-27T13:41:05.975Z,0.60
2019-04-27T13:43:36.199Z,2.15
2019-04-27T13:46:23.602Z,1.25
2019-04-27T13:49:23.867Z,1.12
2019-04-27T13:52:07.159Z,1.10
2019-04-27T13:54:36.030Z,2.00
2019-04-27T13:57:05.199Z,1.10
2019-04-27T13:59:34.078Z,0.90
2019-04-27T14:02:03.120Z,1.40
2019-04-27T14:04:31.920Z,0.80
2019-04-27T14:07:00.803Z,0.80
2019-04-27T14:09:30.677Z,3.65
2019-04-27T14:12:09.502Z,1.80
2019-04-27T14:14:39.047Z,1.00
2019-04-27T14:17:09.722Z,2.10
2019-04-27T14:19:39.496Z,1.20
2019-04-27T14:22:09.210Z,1.25
2019-04-27T14:24:40.346Z,1.05
2019-04-27T14:27:09.807Z,0.88
2019-04-27T14:29:39.198Z,1.17
2019-04-27T14:32:08.693Z,1.93
2019-04-27T14:34:37.550Z,2.10
2019-04-27T14:37:08.531Z,1.80
2019-04-27T14:39:38.880Z,5.80
2019-04-27T14:42:08.348Z,1.70
2019-04-27T14:44:38.984Z,1.20
2019-04-27T14:47:08.248Z,1.98
2019-04-27T14:49:38.928Z,1.65
2019-04-27T14:52:09.413Z,1.62
2019-04-27T14:54:47.273Z,2.52
2019-04-27T14:57:09.128Z,1.77
2019-04-27T14:59:38.471Z,1.70
2019-04-27T15:02:08.717Z,2.40
2019-04-27T15:04:40.209Z,2.37
2019-04-27T15:07:09.375Z,2.67
2019-04-27T15:09:38.398Z,3.03
2019-04-27T15:12:07.430Z,2.72
2019-04-27T15:14:36.415Z,2.10
2019-04-27T15:17:06.811Z,2.75
2019-04-27T15:19:40.658Z,1.32
2019-04-27T15:22:19.741Z,2.10
2019-04-27T15:24:49.000Z,2.30
2019-04-27T15:27:17.169Z,2.02
2019-04-27T15:29:46.068Z,2.65
2019-04-27T15:32:22.515Z,5.28
2019-04-27T15:35:04.984Z,2.72
2019-04-27T15:37:52.149Z,2.23
2019-04-27T15:40:29.043Z,2.08
2019-04-27T15:43:22.989Z,3.20
2019-04-27T15:45:53.505Z,3.25
2019-04-27T15:48:25.030Z,2.30
2019-04-27T15:50:52.234Z,2.20
2019-04-27T15:53:21.030Z,1.93
2019-04-27T15:55:53.650Z,1.85
2019-04-27T15:58:25.036Z,1.35
2019-04-27T16:00:56.235Z,4.20
2019-04-27T16:03:22.845Z,1.57
2019-04-27T16:05:52.406Z,1.70
2019-04-27T16:08:21.266Z,2.37
2019-04-27T16:10:50.200Z,1.80
2019-04-27T16:13:19.031Z,1.70
2019-04-27T16:15:53.870Z,4.00
2019-04-27T16:18:18.939Z,2.22
2019-04-27T16:20:48.531Z,1.27
2019-04-27T16:23:18.170Z,2.55
2019-04-27T16:25:50.791Z,1.42
2019-04-27T16:28:18.425Z,2.10
2019-04-27T16:30:52.423Z,3.12
2019-04-27T16:33:22.079Z,3.00
2019-04-27T16:35:48.914Z,1.25
2019-04-27T16:38:35.066Z,1.67
2019-04-27T16:41:04.270Z,1.32
2019-04-27T16:43:33.286Z,1.37
2019-04-27T16:46:04.409Z,3.00
2019-04-27T16:48:34.731Z,2.30
2019-04-27T16:51:03.593Z,2.50
2019-04-27T16:53:38.209Z,1.98
2019-04-27T16:56:10.829Z,2.92
2019-04-27T16:58:39.910Z,3.52
2019-04-27T17:01:18.409Z,2.52
2019-04-27T17:03:48.517Z,3.80
2019-04-27T17:06:21.048Z,3.12
2019-04-27T17:08:49.647Z,4.15
2019-04-27T17:11:19.569Z,1.72
2019-04-27T17:13:53.169Z,3.02
2019-04-27T17:16:39.734Z,3.42
2019-04-27T17:19:14.202Z,3.02
2019-04-27T17:21:43.165Z,3.77
2019-04-27T17:24:11.992Z,2.50
2019-04-27T17:26:43.574Z,2.55
2019-04-27T17:29:16.730Z,1.98
2019-04-27T17:31:50.670Z,2.08
2019-04-27T17:34:25.023Z,3.00
2019-04-27T17:36:54.478Z,4.17
2019-04-27T17:39:23.437Z,4.40
2019-04-27T17:41:52.741Z,2.10
2019-04-27T17:44:23.172Z,4.80
2019-04-27T17:46:51.950Z,2.33
2019-04-27T17:49:20.795Z,1.95
2019-04-27T17:51:49.880Z,1.22
2019-04-27T17:54:18.776Z,1.00
2019-04-27T17:56:49.717Z,1.15
2019-04-27T17:59:20.723Z,0.70
2019-04-27T18:01:49.628Z,1.05
2019-04-27T18:04:18.732Z,2.75
2019-04-27T18:06:48.349Z,2.87
2019-04-27T18:09:18.929Z,2.37
2019-04-27T18:11:50.018Z,2.05
2019-04-27T18:14:19.275Z,1.60
2019-04-27T18:16:48.622Z,2.63
2019-04-27T18:19:31.666Z,2.62
2019-04-27T18:22:02.130Z,2.30
2019-04-27T18:24:48.747Z,2.10
2019-04-27T18:27:39.807Z,2.60
2019-04-27T18:30:19.658Z,2.40
2019-04-27T18:32:48.989Z,2.75
2019-04-27T18:35:20.022Z,4.17
2019-04-27T18:37:48.701Z,5.30
2019-04-27T18:40:18.301Z,3.93
2019-04-27T18:42:47.182Z,3.30
2019-04-27T18:45:18.252Z,3.10
2019-04-27T18:47:50.325Z,3.75
2019-04-27T18:50:29.170Z,3.85
2019-04-27T18:53:02.318Z,2.17
2019-04-27T18:55:31.174Z,2.73
2019-04-27T18:58:02.066Z,4.22
2019-04-27T19:00:30.734Z,3.90
2019-04-27T19:02:59.623Z,4.53
2019-04-27T19:05:39.654Z,2.83
2019-04-27T19:07:59.079Z,4.28
2019-04-27T19:10:28.260Z,3.93
2019-04-27T19:12:58.515Z,2.25
2019-04-27T19:15:28.555Z,3.80
2019-04-27T19:17:58.153Z,4.28
2019-04-27T19:20:28.751Z,3.75
2019-04-27T19:22:59.756Z,4.78
2019-04-27T19:25:35.930Z,4.40
2019-04-27T19:28:22.916Z,4.97
2019-04-27T19:30:57.651Z,6.17
2019-04-27T19:33:29.151Z,5.67
2019-04-27T19:35:58.523Z,6.95
2019-04-27T19:38:28.939Z,5.60
2019-04-27T19:40:57.831Z,4.65
2019-04-27T19:43:28.440Z,4.10
2019-04-27T19:45:58.432Z,5.17
2019-04-27T19:48:28.613Z,5.85
2019-04-27T19:50:57.660Z,7.20
2019-04-27T19:53:26.622Z,4.78
2019-04-27T19:56:04.379Z,5.72
2019-04-27T19:58:38.172Z,6.00
2019-04-27T20:01:28.126Z,7.05
2019-04-27T20:04:08.655Z,4.47
2019-04-27T20:06:38.507Z,6.30
2019-04-27T20:09:27.070Z,6.42
2019-04-27T20:11:55.958Z,6.15
2019-04-27T20:14:24.842Z,7.30
2019-04-27T20:16:53.721Z,6.00
2019-04-27T20:19:22.664Z,6.60
2019-04-27T20:21:51.968Z,4.97
2019-04-27T20:24:22.723Z,6.65
2019-04-27T20:26:51.702Z,7.67
2019-04-27T20:29:21.764Z,5.72
2019-04-27T20:31:51.782Z,6.78
2019-04-27T20:34:20.887Z,5.47
2019-04-27T20:36:52.745Z,6.53
2019-04-27T20:39:21.694Z,5.15
2019-04-27T20:41:51.113Z,6.10
2019-04-27T20:44:21.067Z,6.67
2019-04-27T20:46:51.343Z,6.67
2019-04-27T20:49:21.290Z,7.23
2019-04-27T20:52:21.595Z,6.55
2019-04-27T20:54:51.443Z,5.97
2019-04-27T20:57:21.652Z,6.72
2019-04-27T20:59:52.247Z,5.53
2019-04-27T21:02:51.812Z,5.65
2019-04-27T21:05:42.963Z,8.08
2019-04-27T21:08:11.866Z,6.62
2019-04-27T21:10:41.384Z,7.62
2019-04-27T21:13:11.191Z,5.80
2019-04-27T21:15:41.884Z,6.37
2019-04-27T21:18:11.478Z,6.55
2019-04-27T21:20:41.299Z,7.22
2019-04-27T21:23:12.121Z,7.33
2019-04-27T21:25:42.129Z,7.83
2019-04-27T21:28:16.489Z,6.55
2019-04-27T21:30:42.043Z,6.50
2019-04-27T21:33:11.445Z,6.92
2019-04-27T21:35:40.398Z,7.10
2019-04-27T21:38:09.310Z,5.85
2019-04-27T21:40:38.123Z,6.00
2019-04-27T21:43:07.101Z,6.83
2019-04-27T21:45:36.063Z,6.33
2019-04-27T21:48:04.999Z,6.23
2019-04-27T21:50:33.882Z,4.53
2019-04-27T21:53:15.154Z,6.65
2019-04-27T21:55:43.978Z,5.42
2019-04-27T21:58:12.793Z,5.93
2019-04-27T22:01:13.224Z,6.90
2019-04-27T22:03:42.602Z,7.95
2019-04-27T22:06:11.681Z,8.15
2019-04-27T22:08:41.058Z,5.78
2019-04-27T22:11:11.621Z,8.73
2019-04-27T22:13:41.000Z,8.30
2019-04-27T22:16:12.737Z,7.42
2019-04-27T22:18:41.737Z,7.70
2019-04-27T22:21:11.552Z,5.42
2019-04-27T22:23:47.367Z,6.12
2019-04-27T22:26:16.314Z,8.43
2019-04-27T22:28:49.323Z,5.92
2019-04-27T22:31:16.145Z,6.10
2019-04-27T22:33:45.272Z,5.45
2019-04-27T22:36:14.141Z,3.58
2019-04-27T22:38:42.970Z,4.87
2019-04-27T22:41:33.719Z,7.10
2019-04-27T22:44:26.118Z,5.33
2019-04-27T22:46:55.494Z,9.98
2019-04-27T22:49:24.298Z,5.10
2019-04-27T22:51:53.243Z,4.45
2019-04-27T22:54:22.986Z,5.33
2019-04-27T22:56:53.532Z,3.50
2019-04-27T22:59:31.951Z,5.90
2019-04-27T23:02:18.628Z,4.50
2019-04-27T23:04:51.687Z,4.83
2019-04-27T23:07:21.274Z,3.75
2019-04-27T23:09:51.590Z,5.97
2019-04-27T23:12:21.539Z,3.23
2019-04-27T23:14:52.245Z,2.47
2019-04-27T23:17:32.781Z,3.10
2019-04-27T23:20:01.704Z,2.55
2019-04-27T23:22:31.531Z,4.73
2019-04-27T23:25:01.129Z,5.20
2019-04-27T23:27:31.749Z,4.40
2019-04-27T23:30:01.550Z,2.40
2019-04-27T23:32:40.860Z,4.22
2019-04-27T23:35:10.084Z,2.65
2019-04-27T23:37:39.243Z,3.67
2019-04-27T23:40:08.170Z,3.20
2019-04-27T23:42:37.031Z,4.35
2019-04-27T23:45:07.017Z,3.72
2019-04-27T23:47:35.891Z,4.73
2019-04-27T23:50:05.399Z,3.22
2019-04-27T23:52:52.586Z,3.37
2019-04-27T23:55:23.350Z,2.90
2019-04-27T23:57:52.133Z,3.85
